createdAt,value
2023-02-11T00:03:43.928Z,100764.28
2023-02-11T00:08:46.764Z,100784.78
2023-02-11T00:13:49.529Z,100860.41
2023-02-11T00:18:54.199Z,100859.91
2023-02-11T00:23:59.984Z,100728.34
2023-02-11T00:29:03.945Z,100794.34
2023-02-11T00:34:07.168Z,100752.50
2023-02-11T00:39:09.848Z,100661.13
2023-02-11T00:44:12.108Z,100690.47
2023-02-11T00:49:15.795Z,100640.22
2023-02-11T00:54:18.101Z,100723.41
2023-02-11T00:59:20.728Z,100843.06
2023-02-11T01:04:23.201Z,100594.75
2023-02-11T01:09:27.603Z,100573.88
2023-02-11T01:14:29.956Z,100651.22
2023-02-11T01:19:32.337Z,100727.38
2023-02-11T01:24:34.737Z,100695.81
2023-02-11T01:29:39.313Z,100686.91
2023-02-11T01:34:41.678Z,100868.03
2023-02-11T01:39:44.102Z,100670.53
2023-02-11T01:44:52.665Z,100798.53
2023-02-11T01:49:59.634Z,100642.25
2023-02-11T01:55:28.684Z,100862.00
2023-02-11T02:00:37.747Z,100560.88
2023-02-11T02:05:56.063Z,100544.28
2023-02-11T02:11:01.071Z,100633.13
2023-02-11T02:16:09.814Z,100643.19
2023-02-11T02:21:34.546Z,100600.84
2023-02-11T02:26:58.899Z,100834.22
2023-02-11T02:32:38.373Z,100677.78
2023-02-11T02:37:42.075Z,100595.81
2023-02-11T02:42:45.181Z,100721.94
2023-02-11T02:47:47.494Z,100742.78
2023-02-11T02:53:12.707Z,100641.91
2023-02-11T02:58:50.157Z,100687.81
2023-02-11T03:04:10.033Z,100759.94
2023-02-11T03:09:26.548Z,100628.91
2023-02-11T03:14:30.619Z,100687.28
2023-02-11T03:19:39.363Z,100625.81
2023-02-11T03:24:42.709Z,100790.81
2023-02-11T03:30:01.095Z,100632.31
2023-02-11T03:35:24.659Z,100730.78
2023-02-11T03:40:32.942Z,100718.50
2023-02-11T03:45:38.084Z,100528.91
2023-02-11T03:50:42.063Z,100757.09
2023-02-11T03:55:48.380Z,100628.28
2023-02-11T04:00:50.902Z,100588.19
2023-02-11T04:05:53.215Z,100620.31
2023-02-11T04:10:55.467Z,100562.16
2023-02-11T04:15:57.787Z,100561.31
2023-02-11T04:20:59.965Z,100619.91
2023-02-11T04:26:02.316Z,100625.28
2023-02-11T04:31:04.947Z,100600.84
2023-02-11T04:36:07.855Z,100551.03
2023-02-11T04:41:10.085Z,100798.41
2023-02-11T04:46:12.446Z,100498.50
2023-02-11T04:51:15.367Z,100586.97
2023-02-11T04:56:17.689Z,100652.94
2023-02-11T05:01:20.035Z,100676.75
2023-02-11T05:06:22.357Z,100447.50
2023-02-11T05:11:26.275Z,100552.66
2023-02-11T05:16:28.680Z,100524.31
2023-02-11T05:21:31.129Z,100591.00
2023-02-11T05:26:33.586Z,100717.72
2023-02-11T05:31:36.003Z,100808.09
2023-02-11T05:36:38.379Z,100598.75
2023-02-11T05:41:40.771Z,100789.00
2023-02-11T05:46:43.170Z,100588.03
2023-02-11T05:51:45.530Z,100739.09
2023-02-11T05:56:47.761Z,100792.38
2023-02-11T06:01:50.037Z,100631.06
2023-02-11T06:06:52.223Z,100707.50
2023-02-11T06:11:54.648Z,100713.34
2023-02-11T06:16:57.007Z,100803.44
2023-02-11T06:22:00.456Z,100548.53
2023-02-11T06:27:04.903Z,100747.94
2023-02-11T06:32:10.107Z,100528.97
2023-02-11T06:37:18.431Z,100785.50
2023-02-11T06:42:20.763Z,100771.53
2023-02-11T06:47:23.074Z,100782.22
2023-02-11T06:52:25.346Z,100606.19
2023-02-11T06:57:27.586Z,100765.53
2023-02-11T07:02:29.864Z,100724.34
2023-02-11T07:07:34.364Z,100659.13
2023-02-11T07:12:36.742Z,100594.66
2023-02-11T07:17:39.054Z,100753.97
2023-02-11T07:22:41.297Z,100763.63
2023-02-11T07:27:43.631Z,100696.28
2023-02-11T07:32:45.881Z,100770.16
2023-02-11T07:37:48.158Z,100838.19
2023-02-11T07:42:50.434Z,100784.38
2023-02-11T07:47:52.690Z,100815.78
2023-02-11T07:52:54.947Z,100926.13
2023-02-11T07:57:57.737Z,100936.72
2023-02-11T08:03:00.225Z,100704.81
2023-02-11T08:08:02.388Z,100892.75
2023-02-11T08:13:04.639Z,100695.56
2023-02-11T08:18:07.532Z,100854.78
2023-02-11T08:23:09.800Z,100872.31
2023-02-11T08:28:12.134Z,100844.16
2023-02-11T08:33:14.381Z,100840.22
2023-02-11T08:38:16.681Z,100841.53
2023-02-11T08:43:18.807Z,100877.13
2023-02-11T08:48:20.999Z,100820.84
2023-02-11T08:53:23.593Z,100972.28
2023-02-11T08:58:25.918Z,100736.69
2023-02-11T09:03:28.350Z,100824.88
2023-02-11T09:08:30.602Z,100946.56
2023-02-11T09:13:34.058Z,100833.38
2023-02-11T09:18:36.333Z,100944.97
2023-02-11T09:23:38.671Z,100837.25
2023-02-11T09:28:40.991Z,100935.03
2023-02-11T09:33:49.178Z,100996.94
2023-02-11T09:38:52.843Z,100961.72
2023-02-11T09:44:05.400Z,100838.59
2023-02-11T09:49:16.456Z,100815.81
2023-02-11T09:54:37.084Z,100862.59
2023-02-11T09:59:40.907Z,100883.19
2023-02-11T10:05:28.378Z,100967.97
2023-02-11T10:10:54.605Z,100947.22
2023-02-11T10:16:27.820Z,101007.97
2023-02-11T10:21:52.935Z,101017.25
2023-02-11T10:26:55.366Z,100987.69
2023-02-11T10:31:59.580Z,101027.25
2023-02-11T10:37:01.987Z,100986.88
2023-02-11T10:42:11.252Z,100993.84
2023-02-11T10:47:23.039Z,100903.75
2023-02-11T10:52:28.353Z,100978.41
2023-02-11T10:57:40.079Z,101065.47
2023-02-11T11:02:52.566Z,101000.00
2023-02-11T11:08:02.769Z,100921.91
2023-02-11T11:13:05.231Z,101054.66
2023-02-11T11:18:22.475Z,100926.19
2023-02-11T11:23:26.246Z,101127.28
2023-02-11T11:28:31.983Z,101056.25
2023-02-11T11:33:37.199Z,101030.31
2023-02-11T11:39:08.787Z,101028.13
2023-02-11T11:44:33.964Z,101140.22
2023-02-11T11:49:43.438Z,100975.44
2023-02-11T11:54:55.907Z,101057.06
2023-02-11T11:59:59.327Z,101122.19
2023-02-11T12:05:07.814Z,101046.13
2023-02-11T12:10:38.200Z,101100.19
2023-02-11T12:16:27.340Z,101063.56
2023-02-11T12:22:03.706Z,101025.47
2023-02-11T12:27:44.142Z,101046.63
2023-02-11T12:33:17.235Z,101060.44
2023-02-11T12:39:05.456Z,101096.00
2023-02-11T12:44:35.617Z,100995.81
2023-02-11T12:56:03.529Z,101057.44
2023-02-11T13:01:16.064Z,101114.69
2023-02-11T13:06:35.402Z,101106.28
2023-02-11T13:11:52.533Z,101084.28
2023-02-11T13:16:58.542Z,101141.75
2023-02-11T13:22:20.614Z,101071.81
2023-02-11T13:27:50.549Z,101071.81
2023-02-11T13:32:55.834Z,101124.28
2023-02-11T13:38:01.578Z,101151.81
2023-02-11T13:43:07.808Z,101085.91
2023-02-11T13:48:24.604Z,101125.69
2023-02-11T13:53:28.233Z,101021.06
2023-02-11T13:58:30.328Z,101046.22
2023-02-11T14:03:57.507Z,101074.00
2023-02-11T14:09:15.602Z,101049.69
2023-02-11T14:14:23.830Z,100986.84
2023-02-11T14:19:46.120Z,101046.00
2023-02-11T14:25:02.485Z,100977.69
2023-02-11T14:30:48.804Z,101078.63
2023-02-11T14:36:22.946Z,101006.53
2023-02-11T14:41:31.441Z,101092.00
2023-02-11T14:46:34.616Z,100959.63
2023-02-11T14:51:40.919Z,101020.78
2023-02-11T14:56:44.791Z,100978.47
2023-02-11T15:01:51.823Z,100963.16
2023-02-11T15:06:55.345Z,100951.56
2023-02-11T15:11:58.736Z,100948.97
2023-02-11T15:17:07.910Z,100959.69
2023-02-11T15:22:30.382Z,100948.16
2023-02-11T15:27:48.276Z,101018.66
2023-02-11T15:33:19.728Z,101039.41
2023-02-11T15:38:21.908Z,101018.38
2023-02-11T15:43:24.168Z,101032.59
2023-02-11T15:48:53.595Z,101023.81
2023-02-11T15:54:03.377Z,100969.09
2023-02-11T15:59:20.420Z,100986.84
2023-02-11T16:04:26.768Z,100943.59
2023-02-11T16:09:36.086Z,100945.97
2023-02-11T16:14:39.459Z,100895.44
2023-02-11T16:19:46.777Z,100859.53
2023-02-11T16:24:52.456Z,100875.53
2023-02-11T16:29:55.036Z,100905.31
2023-02-11T16:35:00.972Z,100804.75
2023-02-11T16:40:03.166Z,100880.66
2023-02-11T16:45:06.234Z,100794.56
2023-02-11T16:50:12.362Z,100797.84
2023-02-11T16:55:15.275Z,100775.84
2023-02-11T17:00:18.290Z,100749.03
2023-02-11T17:05:23.331Z,100804.53
2023-02-11T17:10:25.936Z,100817.59
2023-02-11T17:15:28.135Z,100713.56
2023-02-11T17:20:30.373Z,100822.41
2023-02-11T17:25:32.794Z,100739.31
2023-02-11T17:30:35.703Z,100693.50
2023-02-11T17:35:40.672Z,100717.97
2023-02-11T17:40:42.991Z,100706.00
2023-02-11T17:45:45.123Z,100693.16
2023-02-11T17:50:47.363Z,100724.56
2023-02-11T17:55:49.845Z,100721.78
2023-02-11T18:00:52.368Z,100673.16
2023-02-11T18:05:54.553Z,100675.59
2023-02-11T18:10:56.875Z,100678.16
2023-02-11T18:16:04.182Z,100644.72
2023-02-11T18:21:09.634Z,100618.97
2023-02-11T18:26:13.961Z,100667.19
2023-02-11T18:31:17.215Z,100641.16
2023-02-11T18:36:21.217Z,100637.13
2023-02-11T18:41:23.519Z,100693.22
2023-02-11T18:46:26.093Z,100687.75
2023-02-11T18:51:31.676Z,100726.31
2023-02-11T18:56:34.055Z,100696.63
2023-02-11T19:01:36.591Z,100596.34
2023-02-11T19:06:39.361Z,100622.59
2023-02-11T19:11:47.374Z,100678.75
2023-02-11T19:16:52.987Z,100700.22
2023-02-11T19:21:55.898Z,100731.88
2023-02-11T19:27:02.609Z,100623.41
2023-02-11T19:32:06.434Z,100648.09
2023-02-11T19:37:12.738Z,100680.44
2023-02-11T19:42:15.209Z,100541.16
2023-02-11T19:47:17.906Z,100694.84
2023-02-11T19:52:20.170Z,100639.00
2023-02-11T19:57:22.318Z,100635.16
2023-02-11T20:02:24.996Z,100722.81
2023-02-11T20:07:27.322Z,100707.88
2023-02-11T20:12:29.653Z,100763.66
2023-02-11T20:17:32.139Z,100705.16
2023-02-11T20:22:34.572Z,100776.38
2023-02-11T20:27:36.871Z,100644.25
2023-02-11T20:32:39.039Z,100632.66
2023-02-11T20:37:44.033Z,100553.31
2023-02-11T20:42:46.381Z,100719.53
2023-02-11T20:47:48.833Z,100673.72
2023-02-11T20:52:51.138Z,100701.63
2023-02-11T20:57:53.510Z,100703.00
2023-02-11T21:02:55.855Z,100653.91
2023-02-11T21:07:58.098Z,100640.09
2023-02-11T21:13:00.517Z,100733.41
2023-02-11T21:18:02.756Z,100577.75
2023-02-11T21:23:04.893Z,100552.28
2023-02-11T21:28:07.287Z,100694.31
2023-02-11T21:33:09.674Z,100764.06
2023-02-11T21:38:12.396Z,100619.75
2023-02-11T21:43:14.570Z,100638.72
2023-02-11T21:48:18.079Z,100636.50
2023-02-11T21:53:20.362Z,100651.97
2023-02-11T21:58:22.821Z,100680.13
2023-02-11T22:03:25.257Z,100731.16
2023-02-11T22:08:27.433Z,100681.81
2023-02-11T22:13:29.628Z,100735.50
2023-02-11T22:18:32.112Z,100698.41
2023-02-11T22:23:35.305Z,100712.78
2023-02-11T22:28:40.645Z,100655.22
2023-02-11T22:33:44.153Z,100562.56
2023-02-11T22:38:46.993Z,100626.13
2023-02-11T22:43:49.801Z,100675.19
2023-02-11T22:48:53.062Z,100623.22
2023-02-11T22:54:01.457Z,100672.00
2023-02-11T22:59:08.017Z,100606.97
2023-02-11T23:04:14.791Z,100605.28
2023-02-11T23:09:17.171Z,100675.19
2023-02-11T23:14:19.420Z,100638.84
2023-02-11T23:19:21.642Z,100750.09
2023-02-11T23:24:23.811Z,100582.50
2023-02-11T23:29:26.088Z,100688.81
2023-02-11T23:34:28.433Z,100679.03
2023-02-11T23:39:30.641Z,100645.47
2023-02-11T23:44:32.989Z,100693.06
2023-02-11T23:49:35.423Z,100647.56
2023-02-11T23:54:37.760Z,100648.41
2023-02-11T23:59:41.373Z,100714.88
